If you wish to contribute or participate in the discussions about articles you are invited to join SKYbrary as a registered user

 Actions

Spangdahlem Air Base

From SKYbrary Wiki

ETAD
Airport
ICAO: ETAD
Summary
Name Spangdahlem Air Base
Region Europe
Territory Germany DE.gif
Location Spangdahlem, Rhineland-Palatinate
Serving
Coordinates 49° 58' 29.01" N, 6° 41' 57.00" E
Runways
Designator Length Width Surface ROPS
5/23 3050 m10,006.562 ft
45 m147.638 ft
ASP /


METAR
Observation ETAD 202156Z AUTO 06007KT 9999 CLR 12/02 A3022 RMK AO2 SLP223 T01170016 $
Station Spangdahlem
Date/Time 20 September 2019 21:56:00
Wind direction 60°
Wind speed 07 kts
Lowest cloud amount n/a
Temperature 11.7°C
Dew point 1.6°C
Humidity 49%
QNH hPa
Weather condition n/a

Spangdahlem Air Base

ICAO: ETAD IATA: SPM

Description

Spangdahlem Air Base is a United States Air Force base located near the small German town of Spangdahlem, approximately 30 km16.199 nm
30,000 m
98,425.197 ft
NNE of the city of Trier, Rhineland-Palatinate.

Maps

Terrain

Loading map...

Airport Layout

Loading map...


Accidents & Serious Incidents at or in vicinity of ETAD

None on SKYbrary